Time;durP1;ratioP1;P1;durP2;ratioP2;P2;SDS_P1;SDS_P2;PMS_P1;PMS_P2;Temp;Humidity;BMP_temperature;BMP_pressure;BME280_temperature;BME280_humidity;BME280_pressure;Samples;Min_cycle;Max_cycle;Signal;HPM_P1;HPM_P2
2023/12/31 00:02:03;;;;;;;34.38;30.77;;;;;;;5.79;70.73;95237.25;5054382;28;20186;-74
2023/12/31 00:04:32;;;;;;;33.45;29.85;;;;;;;5.83;70.82;95231.97;5036413;28;20246;-74
2023/12/31 00:06:59;;;;;;;33.53;29.10;;;;;;;5.80;70.83;95236.13;5036421;28;20236;-74
2023/12/31 00:09:28;;;;;;;32.08;28.65;;;;;;;5.74;70.73;95232.75;5037436;28;20254;-75
2023/12/31 00:11:57;;;;;;;30.65;27.45;;;;;;;5.72;71.18;95234.19;5036724;28;20198;-74
2023/12/31 00:14:25;;;;;;;30.13;27.05;;;;;;;5.72;71.10;95237.72;5036662;28;20205;-74
2023/12/31 00:16:55;;;;;;;31.27;28.17;;;;;;;5.72;71.24;95242.41;5036495;28;20246;-74
2023/12/31 00:19:22;;;;;;;31.50;27.42;;;;;;;5.66;71.16;95236.25;5036625;28;20237;-74
2023/12/31 00:21:49;;;;;;;31.08;27.50;;;;;;;5.63;71.47;95241.56;5036502;28;20189;-75
2023/12/31 00:24:16;;;;;;;29.42;26.35;;;;;;;5.59;71.23;95241.38;5036768;28;20662;-75
2023/12/31 00:26:44;;;;;;;29.35;26.27;;;;;;;5.53;71.32;95235.25;5036702;28;20262;-75
2023/12/31 00:29:17;;;;;;;26.25;23.55;;;;;;;5.49;71.37;95245.22;5036465;28;20205;-75
2023/12/31 00:31:46;;;;;;;26.63;23.83;;;;;;;5.52;71.54;95243.78;5036467;28;20254;-75
2023/12/31 00:34:14;;;;;;;26.25;23.55;;;;;;;5.51;71.81;95248.44;5037090;28;20262;-75
2023/12/31 00:36:42;;;;;;;25.42;22.83;;;;;;;5.47;71.80;95247.47;5036082;28;20221;-74
2023/12/31 00:39:11;;;;;;;23.90;21.40;;;;;;;5.46;71.81;95253.25;5036753;28;20205;-74
2023/12/31 00:41:38;;;;;;;25.80;23.17;;;;;;;5.44;71.65;95248.09;5036745;28;20659;-76
2023/12/31 00:44:05;;;;;;;29.75;26.65;;;;;;;5.43;71.92;95248.41;5036309;28;20577;-75
2023/12/31 00:46:36;;;;;;;30.50;27.13;;;;;;;5.44;71.84;95250.03;5036134;28;20559;-75
2023/12/31 00:49:03;;;;;;;36.72;32.88;;;;;;;5.44;71.78;95255.50;5053007;28;20209;-76
2023/12/31 00:51:30;;;;;;;38.22;34.22;;;;;;;5.46;71.85;95253.25;5035875;28;20209;-75
2023/12/31 00:53:57;;;;;;;37.55;33.50;;;;;;;5.46;71.85;95258.72;5036138;28;20197;-76
2023/12/31 00:56:24;;;;;;;37.60;33.67;;;;;;;5.46;71.80;95253.25;5035873;28;20221;-76
2023/12/31 00:58:52;;;;;;;36.10;32.20;;;;;;;5.46;72.01;95253.25;5035861;28;20237;-75
2023/12/31 01:01:19;;;;;;;36.33;32.35;;;;;;;5.48;71.68;95256.47;5036298;28;20579;-76
2023/12/31 01:03:48;;;;;;;32.83;29.45;;;;;;;5.44;72.34;95250.81;5035787;28;20210;-76
2023/12/31 01:06:16;;;;;;;32.88;29.45;;;;;;;5.49;72.29;95241.69;5051231;27;20229;-75
2023/12/31 01:08:43;;;;;;;35.25;31.63;;;;;;;5.51;72.21;95247.63;5035592;28;20198;-75
2023/12/31 01:11:12;;;;;;;30.65;27.55;;;;;;;5.53;71.80;95239.94;5036715;28;20262;-75
2023/12/31 01:13:40;;;;;;;31.33;27.92;;;;;;;5.55;71.54;95240.41;5035836;28;20197;-75
2023/12/31 01:16:07;;;;;;;31.90;28.55;;;;;;;5.51;71.99;95237.50;5036032;28;20224;-75
2023/12/31 01:18:37;;;;;;;31.67;28.27;;;;;;;5.43;71.76;95245.69;5035183;28;20224;-75
2023/12/31 01:21:10;;;;;;;31.05;27.92;;;;;;;5.34;71.88;95239.34;5035791;28;20258;-75
2023/12/31 01:23:37;;;;;;;29.42;26.42;;;;;;;5.28;72.18;95235.97;5035188;28;20213;-75
2023/12/31 01:26:04;;;;;;;29.80;26.48;;;;;;;5.28;72.62;95235.97;5035353;28;20197;-75
2023/12/31 01:28:31;;;;;;;30.55;27.35;;;;;;;5.29;72.58;95232.91;5035790;28;20208;-76
2023/12/31 01:31:00;;;;;;;30.35;27.25;;;;;;;5.32;72.43;95236.94;5035161;28;20536;-77
2023/12/31 01:33:29;;;;;;;29.45;26.50;;;;;;;5.34;72.61;95226.50;5036074;28;20217;-77
2023/12/31 01:35:57;;;;;;;27.23;24.58;;;;;;;5.36;72.77;95224.25;5035346;28;20221;-76
2023/12/31 01:38:26;;;;;;;27.85;25.05;;;;;;;5.37;72.67;95234.06;5035463;28;20186;-76
2023/12/31 01:40:54;;;;;;;29.50;26.58;;;;;;;5.35;72.96;95233.59;5035351;28;20202;-76
2023/12/31 01:43:22;;;;;;;28.02;25.27;;;;;;;5.30;72.61;95220.88;5035335;28;20202;-76
2023/12/31 01:45:51;;;;;;;28.88;26.00;;;;;;;5.28;72.68;95233.22;5035090;28;20210;-76
2023/12/31 01:48:21;;;;;;;28.30;25.30;;;;;;;5.28;72.79;95233.22;5035344;28;20194;-75
2023/12/31 01:50:48;;;;;;;26.13;23.52;;;;;;;5.27;73.07;95231.63;5035609;28;20220;-75
2023/12/31 01:53:18;;;;;;;26.35;23.65;;;;;;;5.30;72.91;95233.69;5034625;28;20246;-75
2023/12/31 01:55:49;;;;;;;27.17;24.33;;;;;;;5.23;72.49;95236.91;5035133;28;20210;-75
2023/12/31 01:58:17;;;;;;;26.92;24.05;;;;;;;5.12;72.58;95235.59;5035454;28;20201;-75
2023/12/31 02:00:45;;;;;;;26.00;23.40;;;;;;;5.07;73.19;95235.69;5018576;28;20270;-75
2023/12/31 02:03:13;;;;;;;26.55;23.98;;;;;;;5.06;73.21;95223.97;5035037;28;20212;-75
2023/12/31 02:05:42;;;;;;;24.30;21.90;;;;;;;5.00;72.88;95225.19;5034488;28;20242;-75
2023/12/31 02:08:09;;;;;;;22.98;20.65;;;;;;;4.96;73.39;95224.22;5034133;28;20249;-76
2023/12/31 02:10:36;;;;;;;23.75;21.35;;;;;;;4.97;73.40;95214.88;5034705;28;20205;-76
2023/12/31 02:13:06;;;;;;;25.17;22.60;;;;;;;5.03;73.42;95221.84;5034643;28;20216;-76
2023/12/31 02:15:34;;;;;;;25.40;22.90;;;;;;;5.02;73.50;95219.44;5034879;28;20217;-77
2023/12/31 02:18:04;;;;;;;22.58;20.27;;;;;;;5.05;73.34;95219.63;5034847;28;20250;-76
2023/12/31 02:20:32;;;;;;;23.50;21.10;;;;;;;5.05;73.63;95214.16;5035692;28;20189;-75
2023/12/31 02:22:59;;;;;;;23.13;20.77;;;;;;;5.04;73.49;95212.50;5034773;28;20200;-76
2023/12/31 02:25:29;;;;;;;23.17;20.88;;;;;;;5.05;73.88;95211.41;5051978;28;20190;-76
2023/12/31 02:28:02;;;;;;;21.65;19.65;;;;;;;5.10;73.55;95205.00;5035081;28;20253;-76
2023/12/31 02:30:30;;;;;;;22.92;20.45;;;;;;;5.15;73.04;95206.78;5034267;28;20190;-76
2023/12/31 02:33:01;;;;;;;21.38;19.35;;;;;;;5.16;73.53;95201.00;5034404;28;20258;-76
2023/12/31 02:35:32;;;;;;;21.30;19.20;;;;;;;5.19;73.27;95191.34;5035764;28;20309;-74
2023/12/31 02:38:00;;;;;;;23.27;20.98;;;;;;;5.13;73.29;95193.44;5038185;28;20190;-74
2023/12/31 02:40:27;;;;;;;21.10;19.00;;;;;;;5.02;73.50;95194.84;5038192;28;20245;-74
2023/12/31 02:42:57;;;;;;;21.83;19.70;;;;;;;4.89;73.00;95195.72;5038204;28;20186;-74
2023/12/31 02:45:30;;;;;;;21.65;19.55;;;;;;;4.85;73.50;95195.53;5038410;28;20225;-75
2023/12/31 02:47:57;;;;;;;21.60;19.52;;;;;;;4.82;73.46;95205.16;5037364;28;20685;-75
2023/12/31 02:50:23;;;;;;;21.00;19.00;;;;;;;4.75;73.55;95193.06;5038142;28;20202;-75
2023/12/31 02:52:50;;;;;;;22.38;20.05;;;;;;;4.69;74.11;95199.81;5037862;28;20206;-75
2023/12/31 02:55:19;;;;;;;21.55;19.35;;;;;;;4.71;74.40;95200.28;5037975;28;20201;-75
2023/12/31 02:57:48;;;;;;;21.85;19.75;;;;;;;4.73;74.42;95198.06;5038134;28;20194;-75
2023/12/31 03:00:21;;;;;;;21.52;19.52;;;;;;;4.77;73.74;95215.44;5037525;28;20219;-74
2023/12/31 03:02:50;;;;;;;20.88;18.70;;;;;;;4.74;74.28;95211.41;5038280;28;20573;-74
2023/12/31 03:05:18;;;;;;;21.27;19.10;;;;;;;4.68;74.10;95198.16;5034302;28;20594;-76
2023/12/31 03:07:45;;;;;;;21.30;19.20;;;;;;;4.68;74.15;95193.50;5043412;27;20237;-75
2023/12/31 03:10:13;;;;;;;20.33;18.30;;;;;;;4.68;74.28;95201.72;5054176;28;20198;-74
2023/12/31 03:12:41;;;;;;;20.05;18.23;;;;;;;4.64;73.92;95205.38;5054451;28;20289;-74
2023/12/31 03:15:12;;;;;;;21.30;19.30;;;;;;;4.50;73.90;95203.53;5054586;28;20258;-74
2023/12/31 03:17:43;;;;;;;21.13;19.00;;;;;;;4.45;74.20;95197.38;5054553;28;20213;-75
2023/12/31 03:20:15;;;;;;;20.58;18.67;;;;;;;4.41;74.05;95202.66;5054743;28;20216;-74
2023/12/31 03:22:42;;;;;;;20.10;18.20;;;;;;;4.38;74.02;95203.28;5054573;28;20205;-74
2023/12/31 03:25:10;;;;;;;20.83;18.73;;;;;;;4.32;74.32;95197.16;5053522;28;20205;-74
2023/12/31 03:27:37;;;;;;;20.15;18.25;;;;;;;4.30;74.25;95202.09;5053910;28;20300;-74
2023/12/31 03:30:05;;;;;;;19.33;17.48;;;;;;;4.32;74.40;95199.88;5037591;28;20201;-74
2023/12/31 03:32:33;;;;;;;16.85;15.27;;;;;;;4.35;74.60;95190.25;5054109;28;20247;-74
2023/12/31 03:35:00;;;;;;;16.63;14.93;;;;;;;4.35;74.03;95190.25;5053876;28;20194;-74
2023/12/31 03:37:31;;;;;;;20.30;18.40;;;;;;;4.31;74.13;95198.25;5053236;28;20221;-74
2023/12/31 03:39:59;;;;;;;18.30;16.50;;;;;;;4.28;74.07;95198.06;5053403;28;20215;-75
2023/12/31 03:42:25;;;;;;;18.85;17.08;;;;;;;4.23;73.94;95204.47;5054208;28;20190;-75
2023/12/31 03:44:53;;;;;;;19.13;17.35;;;;;;;4.19;74.15;95198.00;5053297;28;20653;-75
2023/12/31 03:47:23;;;;;;;18.33;16.52;;;;;;;4.16;73.97;95206.81;5052598;28;20258;-75
2023/12/31 03:49:51;;;;;;;17.25;15.65;;;;;;;4.13;74.10;95198.44;5053507;28;20241;-75
2023/12/31 03:52:22;;;;;;;17.02;15.38;;;;;;;4.15;73.96;95201.66;5054093;28;20305;-75
2023/12/31 03:54:53;;;;;;;16.92;15.23;;;;;;;4.15;74.02;95207.94;5054588;28;20182;-76
2023/12/31 03:57:21;;;;;;;17.67;16.10;;;;;;;4.11;73.97;95212.41;5053279;28;20246;-76
2023/12/31 03:59:47;;;;;;;19.25;17.35;;;;;;;4.08;74.18;95213.81;5053854;28;20206;-76
2023/12/31 04:02:17;;;;;;;21.52;19.23;;;;;;;3.91;73.44;95205.47;5053888;28;20201;-76
2023/12/31 04:04:45;;;;;;;22.40;20.23;;;;;;;3.77;73.41;95215.59;5053870;28;20281;-76
2023/12/31 04:07:12;;;;;;;21.40;19.23;;;;;;;3.75;73.89;95215.13;5112387;27;20247;-76
2023/12/31 04:09:39;;;;;;;20.58;18.67;;;;;;;3.72;74.12;95213.78;5162135;27;20193;-75
2023/12/31 04:12:11;;;;;;;20.20;18.20;;;;;;;3.74;74.52;95213.47;5162316;27;20242;-75
2023/12/31 04:14:38;;;;;;;19.17;17.27;;;;;;;3.76;74.34;95228.44;5162181;27;20186;-76
2023/12/31 04:17:07;;;;;;;18.02;16.33;;;;;;;3.79;74.43;95227.81;5162160;27;20225;-75
2023/12/31 04:19:36;;;;;;;17.40;15.70;;;;;;;3.82;74.27;95218.22;5161621;27;20181;-76
2023/12/31 04:22:03;;;;;;;17.98;16.17;;;;;;;3.84;74.18;95224.97;5161368;27;20205;-76
2023/12/31 04:24:30;;;;;;;17.05;15.52;;;;;;;3.86;74.33;95230.16;5162031;27;20254;-75
2023/12/31 04:26:57;;;;;;;17.35;15.85;;;;;;;3.88;74.53;95227.09;5161449;27;20197;-75
2023/12/31 04:29:28;;;;;;;17.58;15.90;;;;;;;3.89;74.39;95226.81;5161260;27;20292;-76
2023/12/31 04:31:55;;;;;;;18.08;16.38;;;;;;;3.87;74.34;95229.03;5161165;27;20204;-76
2023/12/31 04:34:22;;;;;;;18.65;16.92;;;;;;;3.75;73.79;95229.56;5161317;27;20209;-76
2023/12/31 04:36:50;;;;;;;20.02;18.13;;;;;;;3.64;73.92;95232.81;5161249;27;20213;-76
2023/12/31 04:39:17;;;;;;;19.48;17.45;;;;;;;3.48;73.77;95230.38;5161823;27;20250;-76
2023/12/31 04:41:46;;;;;;;18.50;16.77;;;;;;;3.35;74.03;95236.66;5161385;27;20535;-76
2023/12/31 04:44:13;;;;;;;19.15;17.35;;;;;;;3.40;74.96;95231.09;5158504;27;20202;-76
2023/12/31 04:46:42;;;;;;;18.33;16.58;;;;;;;3.46;74.68;95237.25;5160831;27;20209;-76
2023/12/31 04:49:11;;;;;;;17.90;16.30;;;;;;;3.48;74.67;95235.03;5161538;27;20258;-76
2023/12/31 04:51:41;;;;;;;18.38;16.67;;;;;;;3.47;74.56;95244.31;5161310;27;20405;-76
2023/12/31 04:54:10;;;;;;;18.75;16.98;;;;;;;3.44;74.64;95234.03;5161487;27;20189;-76
2023/12/31 04:56:37;;;;;;;18.98;17.27;;;;;;;3.32;74.51;95242.72;5160872;27;20218;-75
2023/12/31 04:59:05;;;;;;;18.55;16.65;;;;;;;3.19;74.12;95243.50;5159945;27;20602;-75
2023/12/31 05:01:37;;;;;;;17.88;16.27;;;;;;;3.17;74.90;95234.84;5161269;27;20195;-75
2023/12/31 05:04:08;;;;;;;17.48;15.90;;;;;;;3.17;74.96;95240.28;5161047;27;20213;-75
2023/12/31 05:06:37;;;;;;;16.90;15.40;;;;;;;3.11;75.06;95245.81;5148893;27;20223;-75
2023/12/31 05:09:08;;;;;;;17.75;16.13;;;;;;;3.13;75.17;95243.63;5137208;27;20194;-75
2023/12/31 05:11:38;;;;;;;18.80;17.20;;;;;;;3.13;74.81;95248.25;5136544;27;20201;-76
2023/12/31 05:14:05;;;;;;;18.02;16.42;;;;;;;3.13;74.77;95237.34;5137484;27;20199;-75
2023/12/31 05:16:37;;;;;;;18.05;16.35;;;;;;;3.16;75.13;95242.22;5136674;27;20320;-75
2023/12/31 05:19:05;;;;;;;19.00;17.30;;;;;;;3.10;74.81;95246.94;5136989;27;20202;-75
2023/12/31 05:21:32;;;;;;;20.25;18.45;;;;;;;3.16;74.85;95241.38;5135910;27;20195;-75
2023/12/31 05:24:00;;;;;;;22.27;20.27;;;;;;;3.11;74.92;95255.91;5136650;27;20198;-76
2023/12/31 05:26:27;;;;;;;24.85;22.55;;;;;;;3.14;75.49;95255.31;5135957;27;20260;-76
2023/12/31 05:28:54;;;;;;;33.80;31.00;;;;;;;3.11;75.00;95251.28;5136148;27;20206;-75
2023/12/31 05:31:21;;;;;;;48.55;44.53;;;;;;;3.01;75.41;95246.00;5136405;27;20497;-75
2023/12/31 05:33:53;;;;;;;37.58;34.47;;;;;;;2.97;75.38;95247.72;5135493;27;20606;-70
2023/12/31 05:36:24;;;;;;;42.65;38.88;;;;;;;2.86;75.14;95249.00;5136473;27;20211;-75
2023/12/31 05:38:51;;;;;;;46.22;42.33;;;;;;;2.79;75.10;95240.41;5136544;27;20248;-73
2023/12/31 05:41:18;;;;;;;46.65;42.72;;;;;;;2.78;76.13;95244.25;5136357;27;20207;-73
2023/12/31 05:43:49;;;;;;;45.38;41.65;;;;;;;2.83;76.34;95245.00;5118972;27;20202;-74
2023/12/31 05:46:18;;;;;;;41.30;37.90;;;;;;;2.87;76.11;95246.00;5135438;27;20247;-73
2023/12/31 05:48:49;;;;;;;41.67;38.25;;;;;;;2.91;75.86;95251.66;5137528;27;20251;-74
2023/12/31 05:51:18;;;;;;;39.28;35.88;;;;;;;2.85;75.39;95244.69;5135876;27;20191;-76
2023/12/31 05:53:48;;;;;;;38.65;35.25;;;;;;;2.84;75.99;95249.31;5136456;27;20591;-75
2023/12/31 05:56:15;;;;;;;37.10;33.97;;;;;;;2.85;75.66;95244.69;5135435;27;20191;-76
2023/12/31 05:58:46;;;;;;;37.28;34.10;;;;;;;2.84;75.63;95251.25;5135547;27;20244;-75
2023/12/31 06:01:16;;;;;;;35.70;32.78;;;;;;;2.84;76.13;95248.50;5136017;27;20277;-76
2023/12/31 06:03:43;;;;;;;32.38;29.58;;;;;;;2.76;75.42;95239.13;5135468;27;20191;-73
2023/12/31 06:06:10;;;;;;;30.02;27.20;;;;;;;2.72;75.42;95243.53;5126899;27;20211;-70
2023/12/31 06:08:38;;;;;;;30.10;27.23;;;;;;;2.72;75.61;95248.97;5052530;28;20186;-73
2023/12/31 06:11:09;;;;;;;31.13;28.33;;;;;;;2.67;75.29;95257.25;5049975;28;20426;-73
2023/12/31 06:13:38;;;;;;;29.02;26.30;;;;;;;2.68;75.41;95258.03;5051340;28;20692;-71
2023/12/31 06:16:06;;;;;;;29.85;27.05;;;;;;;2.67;75.49;95253.72;5050896;28;20219;-69
2023/12/31 06:18:37;;;;;;;28.48;25.85;;;;;;;2.65;75.78;95257.56;5051116;28;20224;-70
2023/12/31 06:21:07;;;;;;;28.58;25.77;;;;;;;2.68;75.64;95258.03;5051425;28;20250;-73
2023/12/31 06:23:35;;;;;;;25.13;22.63;;;;;;;2.65;75.87;95260.28;5051634;28;20225;-73
2023/12/31 06:26:02;;;;;;;25.77;23.30;;;;;;;2.63;76.42;95261.66;5052364;28;20205;-73
2023/12/31 06:28:33;;;;;;;25.48;23.08;;;;;;;2.58;76.18;95259.03;5050702;28;20258;-72
2023/12/31 06:31:02;;;;;;;25.75;23.17;;;;;;;2.58;76.05;95254.41;5051364;28;20234;-73
2023/12/31 06:33:32;;;;;;;24.88;22.45;;;;;;;2.65;76.47;95256.72;5052075;28;20200;-74
2023/12/31 06:36:00;;;;;;;25.10;22.60;;;;;;;2.64;75.65;95264.09;5050721;28;20648;-73
2023/12/31 06:38:30;;;;;;;24.08;21.83;;;;;;;2.64;76.03;95264.09;5050875;28;20259;-73
2023/12/31 06:41:00;;;;;;;24.58;22.17;;;;;;;2.65;76.04;95264.88;5051090;28;20262;-73
2023/12/31 06:43:27;;;;;;;24.38;21.95;;;;;;;2.70;76.34;95273.00;5051031;28;20254;-73
2023/12/31 06:46:01;;;;;;;22.35;20.15;;;;;;;2.70;75.87;95281.16;5051462;28;20205;-73
2023/12/31 06:48:28;;;;;;;24.02;21.73;;;;;;;2.72;75.94;95286.28;5050639;28;20266;-73
2023/12/31 06:50:58;;;;;;;22.10;19.95;;;;;;;2.70;75.81;95278.44;5050555;28;20237;-72
2023/12/31 06:53:33;;;;;;;20.83;18.70;;;;;;;2.75;75.72;95274.81;5050747;28;20592;-73
2023/12/31 06:56:06;;;;;;;20.60;18.60;;;;;;;2.82;76.06;95277.97;5051044;28;20201;-73
2023/12/31 06:58:36;;;;;;;23.95;21.65;;;;;;;2.86;75.64;95277.06;5050716;28;20225;-73
2023/12/31 07:01:07;;;;;;;25.90;23.40;;;;;;;2.88;75.58;95280.31;5051097;28;20205;-73
2023/12/31 07:03:36;;;;;;;26.63;23.98;;;;;;;2.90;75.91;95282.72;5051638;28;20221;-73
2023/12/31 07:06:05;;;;;;;26.23;23.52;;;;;;;2.88;75.68;95279.50;5054024;28;20221;-73
2023/12/31 07:08:36;;;;;;;25.38;22.90;;;;;;;2.94;76.00;95286.47;5113884;28;20253;-73
2023/12/31 07:11:05;;;;;;;26.67;24.00;;;;;;;2.98;76.37;95284.78;5116097;28;20199;-73
2023/12/31 07:13:36;;;;;;;26.92;23.75;;;;;;;3.03;76.25;95290.13;5114470;28;20261;-73
2023/12/31 07:16:11;;;;;;;27.27;24.25;;;;;;;3.12;76.25;95288.34;5115776;28;20249;-73
2023/12/31 07:18:38;;;;;;;30.65;27.52;;;;;;;3.22;76.76;95287.31;5113735;28;20215;-72
2023/12/31 07:21:09;;;;;;;31.58;28.48;;;;;;;3.33;76.83;95287.94;5115598;28;20207;-72
2023/12/31 07:23:38;;;;;;;33.33;29.92;;;;;;;3.42;76.71;95282.63;5116286;28;20222;-73
2023/12/31 07:26:05;;;;;;;35.97;32.47;;;;;;;3.51;76.53;95278.88;5119954;27;20204;-73
2023/12/31 07:28:32;;;;;;;44.83;40.28;;;;;;;3.61;76.91;95286.03;5117966;28;20234;-73
2023/12/31 07:31:02;;;;;;;54.80;49.17;;;;;;;3.75;76.14;95284.13;5119094;27;20188;-72
2023/12/31 07:33:35;;;;;;;58.63;52.63;;;;;;;3.90;77.12;95274.81;5118071;28;20203;-73
2023/12/31 07:36:04;;;;;;;51.47;46.38;;;;;;;4.01;76.95;95281.66;5119220;27;20196;-72
2023/12/31 07:38:33;;;;;;;49.40;44.60;;;;;;;4.12;76.48;95279.50;5118119;28;20209;-73
2023/12/31 07:41:01;;;;;;;46.90;42.25;;;;;;;4.27;76.69;95278.38;5119298;27;20206;-73
2023/12/31 07:43:29;;;;;;;43.38;39.10;;;;;;;4.42;76.35;95277.19;5117796;28;20290;-73
2023/12/31 07:45:56;;;;;;;40.38;36.38;;;;;;;4.61;75.89;95288.75;5118261;28;20207;-71
2023/12/31 07:48:27;;;;;;;42.63;38.72;;;;;;;4.68;75.06;95280.13;5117601;28;20222;-75
2023/12/31 07:51:03;;;;;;;35.58;32.33;;;;;;;4.80;75.25;95283.94;5117890;28;20261;-76
2023/12/31 07:53:32;;;;;;;31.73;28.73;;;;;;;5.01;75.01;95286.97;5117888;28;20214;-76
2023/12/31 07:56:02;;;;;;;33.70;30.55;;;;;;;5.20;74.93;95288.69;5118533;27;20211;-76
2023/12/31 07:58:30;;;;;;;32.33;29.40;;;;;;;5.31;74.10;95293.56;5117448;28;20622;-76
2023/12/31 08:00:59;;;;;;;32.47;29.58;;;;;;;5.43;73.81;95294.91;5118248;27;20238;-76
2023/12/31 08:03:28;;;;;;;32.20;29.35;;;;;;;5.52;73.12;95290.31;5100683;28;20268;-76
2023/12/31 08:06:07;;;;;;;32.58;29.67;;;;;;;5.63;73.34;95288.91;5117528;27;20196;-76
2023/12/31 08:08:35;;;;;;;33.67;30.58;;;;;;;5.83;72.76;95281.22;5117129;28;20237;-75
2023/12/31 08:11:02;;;;;;;32.90;29.85;;;;;;;5.98;72.05;95280.81;5118812;27;20229;-75
2023/12/31 08:13:36;;;;;;;31.55;28.75;;;;;;;6.15;72.05;95288.28;5117529;28;20195;-76
2023/12/31 08:16:05;;;;;;;33.50;30.30;;;;;;;6.30;71.61;95290.56;5119128;27;20195;-76
2023/12/31 08:18:33;;;;;;;34.63;31.50;;;;;;;6.43;70.33;95288.81;5117360;28;20227;-76
2023/12/31 08:21:04;;;;;;;32.90;29.88;;;;;;;6.59;70.61;95289.13;5119152;27;20195;-77
2023/12/31 08:23:33;;;;;;;33.75;30.65;;;;;;;6.75;69.73;95296.56;5117128;28;20669;-77
2023/12/31 08:26:00;;;;;;;34.08;30.98;;;;;;;6.83;69.81;95292.19;5117799;27;20221;-77
2023/12/31 08:28:27;;;;;;;31.60;28.60;;;;;;;6.96;69.16;95285.72;5138225;27;20198;-76
2023/12/31 08:30:54;;;;;;;32.08;28.98;;;;;;;7.08;68.95;95287.81;5117124;28;20244;-77
2023/12/31 08:33:22;;;;;;;32.22;29.15;;;;;;;7.24;68.29;95279.88;5116412;28;20199;-74
2023/12/31 08:35:50;;;;;;;31.38;28.33;;;;;;;7.34;67.77;95290.50;5116903;28;20188;-71
2023/12/31 08:38:22;;;;;;;31.30;28.50;;;;;;;7.47;67.60;95292.22;5120419;27;20267;-72
2023/12/31 08:40:54;;;;;;;30.58;27.67;;;;;;;7.56;67.33;95296.91;5116597;28;20211;-71
2023/12/31 08:43:21;;;;;;;31.48;28.42;;;;;;;7.75;66.97;95291.81;5111656;27;20191;-70
2023/12/31 08:45:51;;;;;;;32.30;29.13;;;;;;;7.90;66.62;95295.94;5119608;27;20195;-70
2023/12/31 08:48:18;;;;;;;30.73;27.85;;;;;;;8.02;65.85;95295.22;5120082;27;20211;-70
2023/12/31 08:50:49;;;;;;;30.45;27.65;;;;;;;8.04;65.07;95298.47;5116616;28;20204;-71
2023/12/31 08:53:25;;;;;;;32.05;29.13;;;;;;;8.14;65.36;95292.59;5119489;27;20226;-70
2023/12/31 08:55:51;;;;;;;32.75;29.73;;;;;;;8.27;65.36;95285.25;5116240;28;20223;-70
2023/12/31 08:58:19;;;;;;;33.25;30.15;;;;;;;8.37;64.55;95285.69;5116691;28;20318;-71
2023/12/31 09:00:46;;;;;;;33.30;30.25;;;;;;;8.48;64.16;95286.09;5116461;28;20567;-75
2023/12/31 09:03:13;;;;;;;33.10;30.10;;;;;;;8.67;64.10;95289.19;5118298;27;20214;-73
2023/12/31 09:05:42;;;;;;;31.73;28.83;;;;;;;8.86;63.49;95285.16;5115665;28;20641;-70
2023/12/31 09:08:13;;;;;;;30.25;27.48;;;;;;;8.93;63.02;95277.16;5124012;27;20303;-70
2023/12/31 09:10:46;;;;;;;29.70;26.90;;;;;;;9.07;62.73;95274.13;5052779;28;20257;-70
2023/12/31 09:13:15;;;;;;;27.77;25.30;;;;;;;9.21;61.82;95273.84;5052561;28;20201;-69
2023/12/31 09:15:45;;;;;;;28.10;25.55;;;;;;;9.32;61.74;95272.25;5053338;28;20636;-68
2023/12/31 09:18:13;;;;;;;29.08;26.58;;;;;;;9.43;61.29;95262.44;5052589;28;20271;-71
2023/12/31 09:20:40;;;;;;;30.42;27.42;;;;;;;9.53;60.56;95270.25;5052426;28;20202;-72
2023/12/31 09:23:07;;;;;;;25.80;23.42;;;;;;;9.67;60.26;95260.88;5052587;28;20197;-72
2023/12/31 09:25:36;;;;;;;26.15;23.83;;;;;;;9.85;59.87;95256.75;5036387;28;20197;-72
2023/12/31 09:28:07;;;;;;;26.52;24.05;;;;;;;10.01;59.43;95249.41;5051776;28;20208;-72
2023/12/31 09:30:37;;;;;;;29.15;26.40;;;;;;;10.23;58.47;95256.41;5052390;28;20198;-72
2023/12/31 09:33:04;;;;;;;28.45;25.88;;;;;;;10.42;57.43;95246.75;5052163;28;20201;-71
2023/12/31 09:35:31;;;;;;;27.85;25.33;;;;;;;10.54;57.15;95243.97;5051547;28;20640;-72
2023/12/31 09:37:58;;;;;;;25.00;22.75;;;;;;;10.75;57.15;95246.56;5051533;28;20266;-72
2023/12/31 09:40:29;;;;;;;24.98;22.67;;;;;;;11.04;56.02;95243.47;5051833;28;20198;-71
2023/12/31 09:42:58;;;;;;;26.27;23.80;;;;;;;11.32;55.51;95240.69;5051928;28;20194;-73
2023/12/31 09:45:29;;;;;;;27.00;24.52;;;;;;;11.46;54.84;95229.22;5051116;28;20205;-72
2023/12/31 09:48:01;;;;;;;24.00;21.92;;;;;;;11.61;53.93;95232.34;5051775;28;20194;-73
2023/12/31 09:50:30;;;;;;;24.42;22.17;;;;;;;11.76;53.27;95228.78;5051053;28;20210;-71
2023/12/31 09:53:02;;;;;;;24.30;22.10;;;;;;;11.81;53.02;95218.28;5051623;28;20259;-71
2023/12/31 09:55:34;;;;;;;23.85;21.65;;;;;;;11.87;52.71;95218.81;5052193;28;20251;-71
2023/12/31 09:58:04;;;;;;;22.88;20.88;;;;;;;12.04;51.82;95214.91;5051128;28;20214;-71
2023/12/31 10:00:33;;;;;;;23.30;21.25;;;;;;;12.24;52.09;95210.25;5051214;28;20219;-70
2023/12/31 10:03:02;;;;;;;22.42;20.42;;;;;;;12.48;51.56;95201.69;5051244;28;20210;-72
2023/12/31 10:05:30;;;;;;;20.20;18.40;;;;;;;12.69;50.28;95197.78;5052262;28;20197;-74
2023/12/31 10:08:05;;;;;;;18.55;17.05;;;;;;;12.79;50.34;95194.44;5051061;28;20233;-73
2023/12/31 10:10:34;;;;;;;16.48;15.00;;;;;;;12.79;49.56;95190.88;5051876;28;20201;-73
2023/12/31 10:13:02;;;;;;;16.85;15.25;;;;;;;12.69;49.52;95184.75;5052119;28;20217;-73
2023/12/31 10:15:31;;;;;;;18.20;16.65;;;;;;;12.66;49.62;95181.91;5051442;28;20627;-73
2023/12/31 10:18:04;;;;;;;16.75;15.25;;;;;;;12.62;49.50;95178.25;5051752;28;20221;-73
2023/12/31 10:20:31;;;;;;;19.13;17.33;;;;;;;12.62;49.92;95179.06;5052022;28;20644;-74
2023/12/31 10:23:01;;;;;;;18.77;17.10;;;;;;;12.46;49.87;95181.09;5051260;28;20216;-73
2023/12/31 10:25:28;;;;;;;20.38;18.55;;;;;;;12.31;49.87;95170.84;5052185;28;20198;-73
2023/12/31 10:27:57;;;;;;;20.42;18.50;;;;;;;12.06;50.40;95164.78;5052175;28;20206;-75
2023/12/31 10:30:26;;;;;;;20.77;18.88;;;;;;;11.74;50.62;95162.03;5051183;28;20219;-74
2023/12/31 10:32:53;;;;;;;20.40;18.60;;;;;;;11.50;51.54;95163.81;5051435;28;20251;-74
2023/12/31 10:35:24;;;;;;;21.17;19.38;;;;;;;11.36;52.62;95160.69;5050970;28;20262;-74
2023/12/31 10:38:03;;;;;;;21.27;19.48;;;;;;;11.16;52.89;95165.31;5051069;28;20194;-72
2023/12/31 10:40:33;;;;;;;20.27;18.38;;;;;;;11.07;53.25;95159.16;5051267;28;20202;-69
2023/12/31 10:43:02;;;;;;;18.75;16.90;;;;;;;10.96;53.13;95158.06;5051204;28;20198;-72
2023/12/31 10:45:32;;;;;;;19.55;17.75;;;;;;;10.90;53.84;95148.44;5051084;28;20265;-71
2023/12/31 10:48:01;;;;;;;19.55;17.85;;;;;;;10.91;54.29;95150.06;5051990;28;20292;-72
2023/12/31 10:50:36;;;;;;;18.50;16.88;;;;;;;10.88;54.34;95146.03;5051379;28;20217;-71
2023/12/31 10:53:04;;;;;;;17.65;16.05;;;;;;;10.83;54.94;95143.53;5051504;28;20204;-71
2023/12/31 10:55:36;;;;;;;18.75;17.02;;;;;;;10.77;54.54;95137.47;5051533;28;20243;-72
2023/12/31 10:58:05;;;;;;;19.85;18.05;;;;;;;10.78;54.59;95135.50;5052957;28;20251;-71
2023/12/31 11:00:36;;;;;;;19.88;17.98;;;;;;;10.79;55.28;95117.81;5055123;28;20194;-70
2023/12/31 11:03:06;;;;;;;19.52;17.83;;;;;;;10.81;55.10;95121.00;5054452;28;20269;-70
2023/12/31 11:05:48;;;;;;;17.70;16.10;;;;;;;10.79;54.68;95115.06;5054699;28;20266;-69
2023/12/31 11:08:18;;;;;;;19.33;17.63;;;;;;;10.81;55.25;95110.75;5036737;28;20618;-72
2023/12/31 11:10:47;;;;;;;19.17;17.55;;;;;;;10.87;55.02;95108.56;5037642;28;20580;-72
2023/12/31 11:13:15;;;;;;;18.10;16.50;;;;;;;10.95;54.58;95098.50;5038125;28;20204;-72
2023/12/31 11:15:45;;;;;;;18.95;17.27;;;;;;;11.15;55.48;95096.63;5037706;28;20537;-71
2023/12/31 11:18:26;;;;;;;13.18;12.18;;;;;;;11.52;54.48;95088.91;5037660;28;20214;-71
2023/12/31 11:21:11;;;;;;;13.25;12.10;;;;;;;12.20;53.09;95088.50;5038423;28;20202;-72
2023/12/31 11:23:50;;;;;;;13.93;12.70;;;;;;;13.03;51.04;95085.34;5038173;28;20197;-72
2023/12/31 11:26:21;;;;;;;15.20;14.00;;;;;;;13.78;49.04;95066.41;5038154;28;20206;-74
2023/12/31 11:28:51;;;;;;;17.25;15.57;;;;;;;14.45;47.28;95072.06;5038299;28;20249;-71
2023/12/31 11:31:20;;;;;;;15.52;14.23;;;;;;;15.11;45.69;95064.91;5038299;28;20194;-71
2023/12/31 11:33:55;;;;;;;15.65;14.25;;;;;;;16.01;43.59;95055.31;5037891;28;20629;-72